Time;durP1;ratioP1;P1;durP2;ratioP2;P2;SDS_P1;SDS_P2;PMS_P1;PMS_P2;Temp;Humidity;BMP_temperature;BMP_pressure;BME280_temperature;BME280_humidity;BME280_pressure;Samples;Min_cycle;Max_cycle;Signal;HPM_P1;HPM_P2
2023/08/31 00:02:10;;;;;;;2.70;1.77;;;15.10;77.90;;;13.98;100.00;95422.91;4994607;28;20049;-76
2023/08/31 00:04:35;;;;;;;2.70;1.90;;;15.20;78.20;;;13.98;100.00;95430.03;4938433;28;20027;-76
2023/08/31 00:07:01;;;;;;;3.25;1.90;;;15.20;78.00;;;13.97;100.00;95431.88;4981221;28;20093;-76
2023/08/31 00:09:27;;;;;;;2.85;1.83;;;15.20;78.10;;;13.93;100.00;95427.28;4965377;28;20066;-76
2023/08/31 00:11:52;;;;;;;4.85;2.08;;;15.10;78.10;;;13.93;100.00;95430.72;4963959;28;20525;-76
2023/08/31 00:14:18;;;;;;;4.72;2.42;;;15.10;78.10;;;13.91;100.00;95427.50;4958706;28;20121;-76
2023/08/31 00:16:47;;;;;;;2.58;1.92;;;15.10;78.20;;;13.89;100.00;95423.47;4937242;28;20081;-76
2023/08/31 00:19:14;;;;;;;3.35;2.28;;;15.10;78.20;;;13.84;100.00;95428.63;4981323;28;20433;-76
2023/08/31 00:21:40;;;;;;;5.35;2.30;;;15.10;78.20;;;13.84;100.00;95433.94;4966423;28;20026;-76
2023/08/31 00:24:07;;;;;;;3.33;2.25;;;15.10;78.40;;;13.78;100.00;95419.75;4995802;28;20032;-77
2023/08/31 00:26:33;;;;;;;2.53;2.13;;;15.00;78.50;;;13.78;100.00;95438.25;4976308;28;20121;-76
2023/08/31 00:28:58;;;;;;;4.03;2.65;;;15.00;78.50;;;13.76;100.00;95440.31;4975426;28;20046;-75
2023/08/31 00:31:24;;;;;;;2.88;2.30;;;15.00;78.40;;;13.74;100.00;95437.91;4977997;28;20418;-74
2023/08/31 00:33:50;;;;;;;3.40;2.42;;;15.00;78.70;;;13.71;100.00;95442.84;4975194;28;20484;-76
2023/08/31 00:36:18;;;;;;;2.70;2.13;;;15.00;78.60;;;13.68;100.00;95443.28;4982745;28;20061;-76
2023/08/31 00:38:44;;;;;;;2.30;2.10;;;14.90;78.40;;;13.66;100.00;95445.34;4983172;28;20463;-76
2023/08/31 00:41:12;;;;;;;3.17;2.63;;;14.90;78.40;;;13.65;100.00;95446.38;4948508;28;20114;-76
2023/08/31 00:43:37;;;;;;;5.72;2.83;;;14.90;78.20;;;13.63;100.00;95449.25;4977620;28;20050;-73
2023/08/31 00:46:04;;;;;;;3.90;2.30;;;14.80;78.70;;;13.58;100.00;95450.94;4978637;28;20050;-76
2023/08/31 00:48:29;;;;;;;4.25;2.60;;;14.80;78.70;;;13.57;100.00;95446.66;4950301;28;20038;-76
2023/08/31 00:50:55;;;;;;;2.80;2.50;;;14.80;78.70;;;13.54;100.00;95455.03;4989023;28;20229;-76
2023/08/31 00:53:21;;;;;;;4.65;2.50;;;14.80;78.80;;;13.52;100.00;95459.75;4978820;28;20105;-77
2023/08/31 00:55:47;;;;;;;3.13;2.33;;;14.80;79.00;;;13.51;100.00;95458.13;4977593;28;20517;-76
2023/08/31 00:58:13;;;;;;;3.58;2.20;;;14.70;78.90;;;13.48;100.00;95469.97;4979245;28;20467;-76
2023/08/31 01:01:27;;;;;;;3.63;2.28;;;14.70;79.00;;;13.47;100.00;95469.16;4951840;28;20030;-75
2023/08/31 01:04:33;;;;;;;2.90;2.40;;;14.80;79.10;;;13.45;100.00;95467.75;4954154;28;20502;-77
2023/08/31 01:07:25;;;;;;;2.95;2.10;;;14.80;79.00;;;13.45;100.00;95468.56;4972327;28;20145;-75
2023/08/31 01:10:11;;;;;;;2.83;2.53;;;14.70;78.80;;;13.44;100.00;95466.97;4946531;28;20034;-76
2023/08/31 01:13:13;;;;;;;6.55;2.40;;;14.70;78.90;;;13.42;100.00;95455.00;4972330;28;20029;-77
2023/08/31 01:15:41;;;;;;;3.42;2.30;;;14.80;78.90;;;13.42;100.00;95463.75;4937385;28;20046;-76
2023/08/31 01:18:07;;;;;;;3.25;2.72;;;14.70;79.00;;;13.45;100.00;95459.84;4977837;28;20397;-76
2023/08/31 01:20:58;;;;;;;3.75;3.00;;;14.80;78.90;;;13.43;100.00;95460.06;4949401;28;20027;-77
2023/08/31 01:23:42;;;;;;;4.30;3.08;;;14.80;79.10;;;13.43;100.00;95462.69;4952069;28;20042;-73
2023/08/31 01:26:08;;;;;;;5.10;2.67;;;14.80;79.20;;;13.41;100.00;95463.97;4961408;28;20026;-78
2023/08/31 01:28:33;;;;;;;4.85;2.95;;;14.70;79.20;;;13.40;100.00;95468.44;4946807;28;20614;-77
2023/08/31 01:31:05;;;;;;;4.32;2.50;;;14.70;79.30;;;13.37;100.00;95468.88;4961033;28;20786;-75
2023/08/31 01:33:31;;;;;;;4.32;2.92;;;14.70;79.30;;;13.36;100.00;95464.63;4951701;28;20041;-76
2023/08/31 01:35:57;;;;;;;2.85;2.45;;;14.70;79.30;;;13.37;100.00;95468.88;4983189;28;20401;-76
2023/08/31 01:38:26;;;;;;;3.28;2.50;;;14.70;79.40;;;13.37;100.00;95466.25;4948952;28;20054;-76
2023/08/31 01:41:03;;;;;;;3.65;2.60;;;14.70;79.60;;;13.37;100.00;95468.88;4937933;28;20024;-76
2023/08/31 01:43:28;;;;;;;3.97;2.67;;;14.70;79.50;;;13.36;100.00;95472.56;4964669;28;21058;-76
2023/08/31 01:45:54;;;;;;;3.53;2.45;;;14.70;79.50;;;13.38;100.00;95467.84;4993524;28;20054;-76
2023/08/31 01:48:20;;;;;;;5.25;2.55;;;14.80;79.40;;;13.40;100.00;95479.00;4947466;28;20085;-76
2023/08/31 01:50:46;;;;;;;5.43;2.70;;;14.80;79.20;;;13.42;100.00;95471.66;4991343;28;20038;-76
2023/08/31 01:53:12;;;;;;;3.75;2.45;;;14.80;79.20;;;13.45;100.00;95486.25;4962034;28;20018;-76
2023/08/31 01:55:38;;;;;;;3.63;2.53;;;14.70;78.80;;;13.46;100.00;95480.75;4958522;28;20098;-76
2023/08/31 01:58:04;;;;;;;3.08;2.58;;;14.70;79.10;;;13.48;100.00;95485.81;4964379;28;20046;-76
2023/08/31 02:00:34;;;;;;;3.55;2.60;;;14.80;79.00;;;13.48;100.00;95480.53;4960790;28;20034;-75
2023/08/31 02:03:00;;;;;;;5.18;2.40;;;14.80;78.90;;;13.50;100.00;95489.03;4958739;28;20038;-76
2023/08/31 02:05:26;;;;;;;3.83;3.10;;;14.90;78.90;;;13.49;100.00;95493.50;4987039;28;20466;-75
2023/08/31 02:07:51;;;;;;;5.50;2.72;;;14.80;78.90;;;13.55;100.00;95497.09;4960519;28;20097;-75
2023/08/31 02:10:17;;;;;;;4.57;2.65;;;14.80;78.90;;;13.54;100.00;95505.25;4976880;28;20245;-75
2023/08/31 02:12:43;;;;;;;4.07;2.97;;;14.90;79.00;;;13.55;100.00;95493.66;4960984;28;20078;-75
2023/08/31 02:15:09;;;;;;;3.45;2.95;;;14.90;78.70;;;13.53;100.00;95495.72;4975377;28;21206;-75
2023/08/31 02:17:35;;;;;;;3.28;2.72;;;14.90;78.80;;;13.56;100.00;95503.19;4958799;28;20015;-75
2023/08/31 02:20:02;;;;;;;3.60;2.83;;;14.90;78.90;;;13.58;100.00;95511.69;4978297;28;20034;-74
2023/08/31 02:22:35;;;;;;;4.60;3.20;;;14.90;79.10;;;13.58;100.00;95506.41;4962543;28;20061;-75
2023/08/31 02:25:01;;;;;;;4.63;3.42;;;14.90;78.90;;;13.57;100.00;95500.31;4948632;28;20517;-75
2023/08/31 02:27:27;;;;;;;3.95;2.72;;;14.90;79.30;;;13.58;100.00;95512.53;4978597;28;20150;-74
2023/08/31 02:29:53;;;;;;;3.60;3.20;;;14.90;79.10;;;13.58;100.00;95509.91;4962474;28;20080;-75
2023/08/31 02:32:19;;;;;;;3.20;2.90;;;14.90;79.00;;;13.56;100.00;95503.19;4979635;28;22404;-76
2023/08/31 02:34:45;;;;;;;4.00;3.00;;;15.00;79.10;;;13.58;100.00;95517.81;4945845;28;20266;-75
2023/08/31 02:37:11;;;;;;;5.10;3.53;;;14.90;79.10;;;13.61;100.00;95527.13;4993062;28;20073;-75
2023/08/31 02:39:36;;;;;;;3.70;3.15;;;15.00;79.20;;;13.59;100.00;95523.91;4974539;28;20117;-75
2023/08/31 02:42:02;;;;;;;4.55;3.05;;;14.90;79.30;;;13.60;100.00;95536.09;4977129;28;20114;-74
2023/08/31 02:44:28;;;;;;;3.80;3.13;;;14.90;79.40;;;13.60;100.00;95520.25;4930605;28;20031;-75
2023/08/31 02:46:54;;;;;;;3.97;3.20;;;15.00;79.50;;;13.63;100.00;95530.38;4978775;28;20074;-76
2023/08/31 02:49:19;;;;;;;4.00;3.30;;;15.00;79.30;;;13.63;100.00;95530.38;4981544;28;20074;-75
2023/08/31 02:51:45;;;;;;;4.30;3.22;;;14.90;79.30;;;13.63;100.00;95531.16;4996699;28;20504;-75
2023/08/31 02:54:11;;;;;;;3.58;3.28;;;15.00;79.60;;;13.63;100.00;95530.38;4964978;28;20057;-74
2023/08/31 02:56:36;;;;;;;4.10;3.58;;;15.00;79.70;;;13.62;100.00;95521.63;4988486;28;20050;-75
2023/08/31 02:59:02;;;;;;;8.95;7.03;;;15.00;80.10;;;13.62;100.00;95518.19;4948794;28;20447;-76
2023/08/31 03:01:28;;;;;;;6.63;6.03;;;15.00;80.10;;;13.60;100.00;95520.25;4980653;28;20501;-76
2023/08/31 03:03:54;;;;;;;10.05;6.75;;;15.10;80.20;;;13.61;100.00;95521.84;4952242;28;20061;-76
2023/08/31 03:06:20;;;;;;;5.60;4.50;;;15.00;80.50;;;13.58;100.00;95524.91;4981339;28;20076;-76
2023/08/31 03:08:45;;;;;;;4.22;3.83;;;15.00;80.50;;;13.60;100.00;95525.53;4978895;28;20476;-75
2023/08/31 03:11:14;;;;;;;4.35;3.95;;;15.00;80.70;;;13.62;100.00;95518.19;4961480;28;20080;-75
2023/08/31 03:13:39;;;;;;;5.03;4.07;;;15.10;80.80;;;13.63;100.00;95503.94;4963274;28;20033;-76
2023/08/31 03:16:05;;;;;;;3.60;3.22;;;15.10;80.80;;;13.61;100.00;95511.28;4979084;28;20487;-76
2023/08/31 03:18:31;;;;;;;3.40;3.08;;;15.00;80.30;;;13.63;100.00;95512.66;4979920;28;20057;-75
2023/08/31 03:20:57;;;;;;;6.32;3.92;;;15.00;80.70;;;13.60;100.00;95504.38;4969834;28;20076;-75
2023/08/31 03:23:22;;;;;;;4.68;4.07;;;15.00;80.30;;;13.61;100.00;95511.28;4971897;28;20069;-76
2023/08/31 03:25:48;;;;;;;5.47;4.18;;;15.10;80.40;;;13.61;100.00;95519.22;4980729;28;20102;-76
2023/08/31 03:28:14;;;;;;;9.90;8.65;;;15.00;80.30;;;13.57;100.00;95521.47;4992860;28;20126;-75
2023/08/31 03:30:39;;;;;;;11.10;4.47;;;15.00;80.40;;;13.56;100.00;95519.03;4980883;28;20058;-76
2023/08/31 03:33:05;;;;;;;4.88;4.30;;;14.90;80.50;;;13.55;100.00;95517.44;4993759;28;20111;-76
2023/08/31 03:35:34;;;;;;;3.83;3.10;;;14.90;80.40;;;13.49;100.00;95525.22;4941977;28;20027;-75
2023/08/31 03:38:00;;;;;;;4.85;3.97;;;14.80;81.00;;;13.51;100.00;95545.31;4981156;28;20449;-75
2023/08/31 03:40:26;;;;;;;4.93;3.78;;;14.80;81.10;;;13.49;100.00;95551.63;4952337;28;20494;-75
2023/08/31 03:42:53;;;;;;;7.10;6.40;;;14.80;81.30;;;13.48;100.00;95544.75;4976706;28;20052;-75
2023/08/31 03:45:19;;;;;;;5.65;5.05;;;14.80;81.10;;;13.45;100.00;95561.03;4964621;28;20022;-75
2023/08/31 03:47:45;;;;;;;10.90;8.93;;;14.80;81.00;;;13.44;100.00;95551.50;4963632;28;20030;-75
2023/08/31 03:50:11;;;;;;;9.43;7.30;;;14.80;81.30;;;13.45;100.00;95566.31;4949980;28;20457;-76
2023/08/31 03:52:37;;;;;;;6.75;5.22;;;14.80;81.20;;;13.45;100.00;95566.31;4964432;28;20054;-76
2023/08/31 03:55:03;;;;;;;6.63;5.65;;;14.70;81.20;;;13.42;100.00;95561.47;4948283;28;20091;-73
2023/08/31 03:57:28;;;;;;;6.55;5.82;;;14.70;81.20;;;13.43;100.00;95570.22;4948772;28;20050;-76
2023/08/31 03:59:54;;;;;;;5.00;4.50;;;14.70;81.20;;;13.41;100.00;95574.91;4983500;28;20117;-75
2023/08/31 04:02:20;;;;;;;6.90;4.78;;;14.70;81.60;;;13.36;100.00;95570.28;4976935;28;20350;-76
2023/08/31 04:04:45;;;;;;;5.28;4.78;;;14.70;81.70;;;13.37;100.00;95577.19;4971304;28;20026;-76
2023/08/31 04:07:11;;;;;;;5.60;5.10;;;14.60;81.70;;;13.38;100.00;95578.00;4994910;28;20116;-76
2023/08/31 04:09:37;;;;;;;5.65;5.05;;;14.60;81.70;;;13.36;100.00;95583.50;4978386;28;20066;-76
2023/08/31 04:12:03;;;;;;;9.55;5.95;;;14.70;81.70;;;13.32;100.00;95579.66;4978349;28;20055;-73
2023/08/31 04:14:29;;;;;;;11.50;9.57;;;14.60;81.80;;;13.30;100.00;95579.06;4979307;28;20030;-76
2023/08/31 04:16:55;;;;;;;11.45;9.80;;;14.60;81.70;;;13.32;100.00;95589.41;4979999;28;20052;-76
2023/08/31 04:19:21;;;;;;;7.25;6.60;;;14.60;81.70;;;13.32;100.00;95587.56;4946539;28;20140;-75
2023/08/31 04:21:47;;;;;;;6.40;4.97;;;14.70;81.70;;;13.33;100.00;95591.84;4945194;28;20101;-76
2023/08/31 04:24:13;;;;;;;6.15;4.80;;;14.70;81.90;;;13.32;100.00;95592.06;4980714;28;20050;-75
2023/08/31 04:26:39;;;;;;;6.68;5.40;;;14.70;82.00;;;13.32;100.00;95592.88;4948991;28;20058;-75
2023/08/31 04:29:07;;;;;;;7.75;5.90;;;14.60;81.90;;;13.31;100.00;95593.88;4969905;28;20447;-76
2023/08/31 04:31:33;;;;;;;7.35;5.55;;;14.70;82.00;;;13.33;100.00;95598.94;4978103;28;20058;-72
2023/08/31 04:33:59;;;;;;;5.28;4.78;;;14.70;81.80;;;13.30;100.00;95605.47;4969404;28;20034;-76
2023/08/31 04:36:27;;;;;;;5.07;4.55;;;14.80;81.70;;;13.30;100.00;95610.75;4963146;28;20061;-77
2023/08/31 04:38:53;;;;;;;7.65;5.03;;;14.70;81.70;;;13.25;100.00;95597.41;4949926;28;20026;-73
2023/08/31 04:41:19;;;;;;;5.47;4.88;;;14.70;82.00;;;13.28;100.00;95612.81;4992174;28;20470;-76
2023/08/31 04:43:47;;;;;;;7.43;4.43;;;14.70;81.90;;;13.24;100.00;95614.28;4983685;28;20058;-76
2023/08/31 04:46:13;;;;;;;7.80;6.53;;;14.70;81.90;;;13.29;100.00;95625.00;4951236;28;21975;-76
2023/08/31 04:48:42;;;;;;;6.80;5.38;;;14.70;82.00;;;13.30;100.00;95623.97;4977201;28;20060;-76
2023/08/31 04:51:30;;;;;;;6.13;5.53;;;14.70;81.90;;;13.31;100.00;95617.66;4963604;28;20022;-76
2023/08/31 04:53:55;;;;;;;6.38;4.93;;;14.70;82.00;;;13.33;100.00;95620.09;4974535;28;20042;-76
2023/08/31 04:56:21;;;;;;;6.40;4.82;;;14.80;81.80;;;13.35;100.00;95634.72;4980705;28;20141;-76
2023/08/31 04:58:47;;;;;;;4.90;4.40;;;14.80;81.70;;;13.35;100.00;95634.72;4979326;28;20080;-76
2023/08/31 05:01:13;;;;;;;5.65;4.43;;;14.70;81.60;;;13.36;100.00;95641.63;4981338;28;20083;-76
2023/08/31 05:03:38;;;;;;;5.97;4.20;;;14.80;81.70;;;13.39;100.00;95637.72;4990948;28;20070;-77
2023/08/31 05:06:04;;;;;;;5.53;4.03;;;14.80;81.60;;;13.37;100.00;95635.31;4979938;28;20050;-77
2023/08/31 05:08:30;;;;;;;7.50;4.53;;;14.80;81.60;;;13.39;100.00;95632.44;4975414;28;20411;-77
2023/08/31 05:10:56;;;;;;;4.72;4.25;;;14.80;81.60;;;13.43;100.00;95638.91;4981730;28;20112;-78
2023/08/31 05:13:22;;;;;;;6.75;4.20;;;14.90;81.80;;;13.45;100.00;95640.28;4979010;28;20121;-73
2023/08/31 05:15:47;;;;;;;5.22;4.05;;;14.90;81.60;;;13.45;100.00;95645.59;4980806;28;20064;-67
2023/08/31 05:18:13;;;;;;;5.65;4.20;;;14.80;81.60;;;13.43;100.00;95652.09;4980088;28;22735;-73
2023/08/31 05:20:39;;;;;;;5.35;3.70;;;14.80;81.80;;;13.37;100.00;95648.50;4979821;28;20129;-76
2023/08/31 05:23:05;;;;;;;4.13;3.47;;;14.90;81.80;;;13.42;100.00;95661.88;4962155;28;20063;-77
2023/08/31 05:25:30;;;;;;;5.65;3.20;;;14.90;81.70;;;13.44;100.00;95665.09;4990887;28;20038;-77
2023/08/31 05:27:56;;;;;;;4.53;3.95;;;15.00;81.80;;;13.47;100.00;95663.84;4949244;28;20116;-77
2023/08/31 05:30:22;;;;;;;4.85;3.53;;;15.00;81.70;;;13.52;100.00;95655.28;4975455;28;20066;-77
2023/08/31 05:32:47;;;;;;;12.82;11.30;;;15.10;81.70;;;13.56;100.00;95659.09;4961777;28;20516;-78
2023/08/31 05:35:13;;;;;;;7.75;5.45;;;15.10;81.50;;;13.61;100.00;95665.34;4950728;28;20043;-77
2023/08/31 05:37:39;;;;;;;4.38;3.65;;;15.20;80.90;;;13.62;100.00;95666.97;4970161;28;20762;-78
2023/08/31 05:40:10;;;;;;;6.38;4.03;;;15.10;80.20;;;13.70;100.00;95679.09;4933117;28;20092;-76
2023/08/31 05:42:36;;;;;;;;;;;15.20;80.50;;;13.70;100.00;95674.59;4975578;28;20037;-77
2023/08/31 05:45:02;;;;;;;4.75;3.65;;;15.20;80.10;;;13.74;100.00;95670.50;4960492;28;19917;-77
2023/08/31 05:47:28;;;;;;;5.10;3.95;;;15.30;80.30;;;13.80;100.00;95674.09;4968838;28;20514;-77
2023/08/31 05:49:54;;;;;;;4.93;3.38;;;15.40;80.10;;;13.82;100.00;95672.06;4966425;28;20125;-75
2023/08/31 05:52:19;;;;;;;4.25;3.15;;;15.40;80.00;;;13.83;100.00;95684.25;4947648;28;20534;-77
2023/08/31 05:54:45;;;;;;;5.80;3.63;;;15.50;79.40;;;13.89;100.00;95687.84;4977796;28;20525;-76
2023/08/31 05:57:11;;;;;;;4.07;3.30;;;15.60;79.30;;;13.98;100.00;95687.34;4949644;28;20079;-76
2023/08/31 05:59:37;;;;;;;5.05;3.92;;;15.70;78.90;;;14.00;100.00;95674.69;4977552;28;20070;-76
2023/08/31 06:02:04;;;;;;;4.13;3.47;;;15.70;79.00;;;14.10;100.00;95685.59;4963874;28;20054;-76
2023/08/31 06:04:30;;;;;;;6.55;3.40;;;15.70;79.00;;;14.09;100.00;95681.31;4996236;28;20030;-76
2023/08/31 06:06:56;;;;;;;4.75;3.85;;;15.70;78.10;;;14.14;100.00;95690.44;4964190;28;20035;-76
2023/08/31 06:09:22;;;;;;;4.32;3.20;;;15.70;78.20;;;14.16;100.00;95691.81;4936024;28;20516;-76
2023/08/31 06:11:48;;;;;;;5.25;3.45;;;15.70;78.10;;;14.22;100.00;95690.94;4977373;28;20062;-73
2023/08/31 06:14:13;;;;;;;4.47;3.20;;;15.80;78.40;;;14.24;100.00;95691.50;4972425;28;20132;-74
2023/08/31 06:16:39;;;;;;;5.40;3.30;;;15.80;78.00;;;14.27;100.00;95685.00;4980668;28;20041;-73
2023/08/31 06:19:05;;;;;;;4.80;2.80;;;15.80;78.10;;;14.28;100.00;95694.53;4977613;28;20065;-74
2023/08/31 06:21:30;;;;;;;3.92;3.10;;;15.90;77.80;;;14.33;100.00;95695.50;4983119;28;20057;-68
2023/08/31 06:23:56;;;;;;;5.50;2.92;;;16.00;78.00;;;14.39;100.00;95693.78;4967391;28;20069;-67
2023/08/31 06:26:22;;;;;;;6.18;3.30;;;16.00;77.00;;;14.39;100.00;95705.19;4981639;28;20043;-67
2023/08/31 06:28:48;;;;;;;4.50;2.63;;;15.90;76.90;;;14.45;100.00;95702.69;4982524;28;20046;-67
2023/08/31 06:31:13;;;;;;;4.93;2.83;;;16.10;76.70;;;14.44;100.00;95701.88;4983905;28;20065;-76
2023/08/31 06:33:39;;;;;;;3.20;2.63;;;16.00;76.80;;;14.48;100.00;95694.31;4971786;28;20058;-68
2023/08/31 06:36:05;;;;;;;3.67;2.42;;;16.10;76.70;;;14.51;100.00;95702.63;4943103;28;20037;-73
2023/08/31 06:38:31;;;;;;;3.45;2.53;;;16.10;76.60;;;14.56;100.00;95709.91;4983865;28;20364;-68
2023/08/31 06:40:58;;;;;;;3.92;2.92;;;16.10;76.20;;;14.56;100.00;95704.59;4967733;28;20055;-68
2023/08/31 06:43:26;;;;;;;3.47;2.45;;;16.10;75.50;;;14.58;100.00;95719.22;4948200;28;20039;-74
2023/08/31 06:45:53;;;;;;;3.53;2.33;;;16.20;75.70;;;14.63;100.00;95718.56;4950838;28;20031;-73
2023/08/31 06:48:19;;;;;;;3.58;2.45;;;16.20;75.30;;;14.68;100.00;95714.19;4949986;28;20046;-74
2023/08/31 06:50:44;;;;;;;4.15;2.30;;;16.40;75.80;;;14.72;100.00;95717.22;4975620;28;20499;-74
2023/08/31 06:53:10;;;;;;;3.15;2.40;;;16.40;75.40;;;14.77;100.00;95727.94;4980701;28;20114;-72
2023/08/31 06:55:36;;;;;;;3.65;2.47;;;16.40;75.10;;;14.82;100.00;95725.44;4980117;28;20121;-71
2023/08/31 06:58:04;;;;;;;4.68;2.40;;;16.50;75.40;;;14.82;100.00;95729.94;4982236;28;20116;-74
2023/08/31 07:00:30;;;;;;;3.72;2.70;;;16.50;75.30;;;14.88;100.00;95740.41;4944558;28;20493;-73
2023/08/31 07:02:55;;;;;;;3.72;2.10;;;16.60;74.60;;;14.93;100.00;95739.75;4948506;28;20030;-68
2023/08/31 07:05:25;;;;;;;3.80;2.05;;;16.60;74.40;;;14.96;100.00;95732.19;4963243;28;21383;-67
2023/08/31 07:07:54;;;;;;;5.30;2.33;;;16.60;75.00;;;15.02;100.00;95735.75;4962783;28;20053;-67
2023/08/31 07:10:21;;;;;;;3.70;2.00;;;16.70;75.20;;;15.07;100.00;95735.88;4953519;28;20141;-69
2023/08/31 07:12:47;;;;;;;2.95;2.00;;;16.70;74.90;;;15.13;100.00;95732.31;4981979;28;20764;-67
2023/08/31 07:15:13;;;;;;;3.35;1.90;;;16.80;74.10;;;15.21;100.00;95734.66;4967038;28;20100;-67
2023/08/31 07:17:38;;;;;;;2.53;1.70;;;16.90;73.60;;;15.24;100.00;95731.56;4961560;28;20474;-67
2023/08/31 07:20:09;;;;;;;2.95;2.15;;;16.90;73.70;;;15.32;100.00;95736.53;4975953;28;20525;-68
2023/08/31 07:22:34;;;;;;;2.78;2.00;;;17.10;73.90;;;15.36;100.00;95738.72;4946193;28;20347;-67
2023/08/31 07:25:00;;;;;;;2.17;1.65;;;17.10;73.10;;;15.41;100.00;95744.16;4942424;28;20133;-66
2023/08/31 07:27:26;;;;;;;3.83;1.80;;;17.10;72.20;;;15.43;100.00;95747.41;4959075;28;20058;-67
2023/08/31 07:29:55;;;;;;;2.72;1.77;;;17.10;72.60;;;15.49;100.00;95751.78;4976539;28;20069;-68
2023/08/31 07:32:20;;;;;;;4.38;1.98;;;17.20;72.00;;;15.57;100.00;95756.72;4952822;28;20054;-67
2023/08/31 07:34:46;;;;;;;2.53;1.60;;;17.40;72.80;;;15.65;100.00;95755.66;4941514;28;20505;-66
2023/08/31 07:37:12;;;;;;;2.15;1.60;;;17.50;71.40;;;15.69;100.00;95757.59;4966743;28;20065;-66
2023/08/31 07:39:37;;;;;;;4.50;1.80;;;17.50;71.10;;;15.76;100.00;95763.59;4958565;28;20058;-65
2023/08/31 07:42:05;;;;;;;4.32;1.60;;;17.60;70.80;;;15.81;100.00;95755.75;4973246;28;20636;-68
2023/08/31 07:44:31;;;;;;;4.32;1.80;;;17.60;70.30;;;15.85;100.00;95754.28;4977212;28;20108;-67
2023/08/31 07:46:57;;;;;;;2.60;1.50;;;17.80;70.70;;;15.95;100.00;95763.50;4956019;28;20042;-67
2023/08/31 07:49:22;;;;;;;4.32;1.90;;;17.90;70.90;;;16.01;100.00;95765.22;4965014;28;20106;-67
2023/08/31 07:51:48;;;;;;;3.35;1.83;;;17.90;70.00;;;16.03;100.00;95769.25;4969451;28;20064;-68
2023/08/31 07:54:23;;;;;;;5.10;1.88;;;17.90;69.70;;;16.06;100.00;95760.81;4977625;28;20038;-67
2023/08/31 07:56:49;;;;;;;3.60;1.77;;;18.00;68.80;;;16.17;100.00;95765.34;4930667;28;20034;-67
2023/08/31 07:59:16;;;;;;;3.40;1.98;;;18.40;68.00;;;16.34;100.00;95765.44;4948294;28;20062;-69
2023/08/31 08:01:42;;;;;;;3.00;1.67;;;18.80;65.80;;;16.60;100.00;95773.94;4980148;28;20088;-74
2023/08/31 08:04:08;;;;;;;2.70;1.75;;;19.10;66.20;;;16.72;99.52;95772.06;4973692;28;20070;-71
2023/08/31 08:06:34;;;;;;;2.70;1.70;;;19.10;65.40;;;16.88;99.87;95755.41;4967095;28;20117;-69
2023/08/31 08:08:59;;;;;;;2.40;1.67;;;19.20;66.10;;;17.06;97.88;95759.72;4964481;28;20074;-69
2023/08/31 08:11:25;;;;;;;4.32;2.67;;;19.50;65.10;;;17.26;97.50;95762.75;4971100;28;20086;-73
2023/08/31 08:13:51;;;;;;;3.05;1.70;;;19.80;63.80;;;17.41;94.72;95765.66;4981887;28;20957;-71
2023/08/31 08:16:16;;;;;;;3.78;2.05;;;19.80;62.50;;;17.58;94.12;95771.00;4964889;28;20443;-73
2023/08/31 08:18:42;;;;;;;3.25;1.27;;;20.10;61.90;;;17.73;91.38;95779.28;4949932;28;20494;-73
2023/08/31 08:21:08;;;;;;;5.03;1.92;;;20.10;61.10;;;17.82;90.64;95776.22;4939204;28;20510;-71
2023/08/31 08:23:34;;;;;;;4.90;1.67;;;20.00;60.70;;;17.87;88.56;95773.63;4974972;28;20560;-69
2023/08/31 08:25:59;;;;;;;4.78;1.58;;;20.00;60.00;;;17.90;87.23;95786.47;4947640;28;20578;-69
2023/08/31 08:28:26;;;;;;;2.35;1.42;;;20.00;61.00;;;17.87;86.68;95781.59;4979720;28;20196;-76
2023/08/31 08:30:51;;;;;;;3.17;1.63;;;19.60;60.60;;;17.70;85.75;95787.75;4965088;28;20033;-66
2023/08/31 08:33:17;;;;;;;3.25;1.73;;;19.30;61.60;;;17.66;85.59;95791.91;4962988;28;20512;-68
2023/08/31 08:35:43;;;;;;;2.58;1.65;;;19.20;62.90;;;17.59;85.69;95785.91;4964436;28;20513;-68
2023/08/31 08:38:09;;;;;;;4.20;1.70;;;19.30;61.60;;;17.56;83.22;95786.41;4976854;28;20061;-67
2023/08/31 08:40:35;;;;;;;4.50;1.73;;;19.10;61.10;;;17.52;83.33;95793.25;4982320;28;20082;-71
2023/08/31 08:43:01;;;;;;;4.38;1.80;;;19.10;60.90;;;17.50;83.01;95790.03;4966362;28;20084;-70
2023/08/31 08:45:36;;;;;;;2.65;1.65;;;19.10;62.00;;;17.50;83.76;95789.22;4943358;28;20081;-68
2023/08/31 08:48:05;;;;;;;5.03;1.88;;;19.20;62.30;;;17.48;83.77;95786.00;4973342;28;20051;-68
2023/08/31 08:50:31;;;;;;;4.43;1.73;;;19.20;62.00;;;17.45;82.99;95787.28;4946678;28;20450;-68
2023/08/31 08:52:57;;;;;;;3.40;1.48;;;19.10;60.90;;;17.35;83.18;95787.09;4944005;28;20022;-73
2023/08/31 08:55:23;;;;;;;4.32;1.80;;;19.00;61.90;;;17.28;81.69;95802.41;4977160;28;20387;-69
2023/08/31 08:57:49;;;;;;;5.10;1.67;;;18.70;61.80;;;17.20;82.82;95802.75;4945008;28;20142;-71
2023/08/31 09:00:15;;;;;;;5.10;1.67;;;18.60;62.70;;;17.11;83.20;95802.34;4963182;28;20045;-69
2023/08/31 09:02:41;;;;;;;4.03;1.70;;;18.60;63.10;;;17.03;84.02;95814.16;4964890;28;20046;-69
2023/08/31 09:05:07;;;;;;;4.18;1.90;;;18.50;63.80;;;16.93;83.39;95813.94;4918639;28;20117;-68
2023/08/31 09:07:39;;;;;;;2.88;1.70;;;18.30;63.30;;;16.79;82.48;95809.97;4979531;28;20039;-69
2023/08/31 09:10:05;;;;;;;3.05;1.80;;;18.00;63.50;;;16.70;83.33;95827.28;4960174;28;20498;-68
2023/08/31 09:12:31;;;;;;;6.57;2.00;;;18.10;64.30;;;16.60;85.43;95833.16;4973105;28;20034;-67
2023/08/31 09:15:01;;;;;;;3.10;1.63;;;18.00;65.60;;;16.51;85.72;95830.03;4978249;28;20143;-67
2023/08/31 09:17:38;;;;;;;4.50;1.60;;;17.90;66.20;;;16.45;86.54;95830.97;4964859;28;20434;-68
2023/08/31 09:20:04;;;;;;;4.75;1.90;;;17.90;66.20;;;16.36;86.07;95819.09;4931390;28;20059;-66
2023/08/31 09:22:31;;;;;;;4.18;1.73;;;17.70;65.90;;;16.31;87.52;95819.00;4963453;28;20790;-67
2023/08/31 09:24:57;;;;;;;5.38;1.85;;;17.80;66.70;;;16.34;88.19;95828.34;4930726;28;20046;-74
2023/08/31 09:27:24;;;;;;;3.35;1.73;;;17.90;66.90;;;16.31;88.96;95823.50;4970470;28;20487;-74
2023/08/31 09:29:50;;;;;;;5.63;2.08;;;17.80;66.80;;;16.29;89.83;95831.66;4959084;28;20518;-73
2023/08/31 09:32:17;;;;;;;4.93;2.40;;;17.80;68.20;;;16.25;89.40;95822.56;4960938;28;20093;-75
2023/08/31 09:34:43;;;;;;;3.45;1.65;;;17.90;67.10;;;16.30;91.01;95835.97;4972861;28;20033;-75
2023/08/31 09:37:09;;;;;;;3.13;1.85;;;17.90;67.80;;;16.30;90.46;95837.81;4979854;28;20034;-75
2023/08/31 09:39:41;;;;;;;5.00;1.88;;;18.00;67.20;;;16.32;90.90;95838.38;4979645;28;20070;-75
2023/08/31 09:42:07;;;;;;;4.80;1.70;;;18.00;67.40;;;16.31;90.59;95834.91;4968604;28;20026;-74
2023/08/31 09:44:32;;;;;;;4.45;1.98;;;17.90;67.60;;;16.37;91.72;95828.69;4967920;28;20026;-75
2023/08/31 09:46:58;;;;;;;5.00;2.05;;;18.10;67.50;;;16.47;89.79;95828.09;4977933;28;20513;-76
2023/08/31 09:49:25;;;;;;;4.40;2.10;;;18.30;64.90;;;16.62;87.81;95814.34;4963786;28;20050;-74
2023/08/31 09:51:51;;;;;;;3.50;1.90;;;18.60;63.50;;;16.76;87.95;95826.38;4965975;28;20401;-75
2023/08/31 09:54:18;;;;;;;7.10;2.10;;;18.80;63.00;;;16.90;86.19;95834.88;4960042;28;20034;-75
2023/08/31 09:56:45;;;;;;;3.15;1.80;;;18.90;62.50;;;16.94;84.77;95828.03;4967542;28;20031;-75
2023/08/31 09:59:14;;;;;;;5.68;1.65;;;18.70;61.60;;;16.93;84.45;95832.53;4963930;28;20556;-73
2023/08/31 10:01:40;;;;;;;4.63;1.63;;;18.60;62.40;;;16.89;82.77;95825.28;4958285;28;20056;-75
2023/08/31 10:04:08;;;;;;;5.38;2.10;;;18.40;62.50;;;16.85;83.36;95830.25;4999913;28;20483;-74
2023/08/31 10:06:39;;;;;;;2.80;1.50;;;18.30;63.00;;;16.84;82.07;95816.19;4948972;28;20606;-75
2023/08/31 10:09:05;;;;;;;5.07;1.98;;;18.50;62.80;;;16.88;84.01;95834.28;4921878;28;20050;-65
2023/08/31 10:11:31;;;;;;;4.78;1.98;;;18.60;63.30;;;16.93;84.59;95837.06;4945510;28;20026;-66
2023/08/31 10:13:58;;;;;;;4.80;2.15;;;18.70;64.30;;;16.96;83.50;95825.94;4947062;28;20045;-66
2023/08/31 10:16:27;;;;;;;5.05;1.73;;;18.60;62.70;;;16.95;83.21;95825.16;4977720;28;20050;-73